FTTA

Sarh Airport

Sarh, Chad
METAR FTTA 241200Z 12012KT CAVOK 38/15 Q1008
Observed Flight Rules
Feb-24 @ 12:00 UTC (22 minutes ago) Visual Flight Rules
Wind Visibility Clouds
120° at 12 knots 10,000+ meters
  • Clear skies
Temperatures Readings
Current 38°C / 100°F
Dewpoint 15°C / 59°F
Humidity 25%
Altimeter 29.76" Hg
Pressure 1008 hPa
Elevation 365
METAR FTTA 241200Z 12012KT CAVOK 38/15 Q1008
Observed Flight Rules
Feb-24 @ 12:00 UTC
(22 minutes ago)
VFR
Wind Visibility
120° at 12 knots 10,000+ meters
Clouds
  • Clear skies
Temperature Dewpoint
38°C / 100°F 15°C / 59°F
Humidity Altimeter Pressure
25% 29.76" Hg 1008 hPa